sensor_id;sensor_type;location;lat;lon;timestamp;temperature;humidity
28374;DHT22;15616;40.148;-102.718;2023-03-11T00:00:19;20.20;46.70
28374;DHT22;15616;40.148;-102.718;2023-03-11T00:02:48;20.20;46.70
28374;DHT22;15616;40.148;-102.718;2023-03-11T00:05:24;20.30;46.70
28374;DHT22;15616;40.148;-102.718;2023-03-11T00:07:51;20.30;46.60
28374;DHT22;15616;40.148;-102.718;2023-03-11T00:10:20;20.30;46.60
28374;DHT22;15616;40.148;-102.718;2023-03-11T00:12:46;20.30;46.60
28374;DHT22;15616;40.148;-102.718;2023-03-11T00:15:12;20.30;46.50
28374;DHT22;15616;40.148;-102.718;2023-03-11T00:17:39;20.30;46.50
28374;DHT22;15616;40.148;-102.718;2023-03-11T00:20:06;20.30;46.50
28374;DHT22;15616;40.148;-102.718;2023-03-11T00:22:32;20.30;46.50
28374;DHT22;15616;40.148;-102.718;2023-03-11T00:24:58;20.30;46.50
28374;DHT22;15616;40.148;-102.718;2023-03-11T00:27:24;20.30;46.50
28374;DHT22;15616;40.148;-102.718;2023-03-11T00:29:50;20.30;46.40
28374;DHT22;15616;40.148;-102.718;2023-03-11T00:32:16;20.20;46.40
28374;DHT22;15616;40.148;-102.718;2023-03-11T00:34:42;20.30;46.50
28374;DHT22;15616;40.148;-102.718;2023-03-11T00:37:08;20.30;46.50
28374;DHT22;15616;40.148;-102.718;2023-03-11T00:39:34;20.30;46.50
28374;DHT22;15616;40.148;-102.718;2023-03-11T00:41:59;20.30;46.50
28374;DHT22;15616;40.148;-102.718;2023-03-11T00:44:25;20.30;46.50
28374;DHT22;15616;40.148;-102.718;2023-03-11T00:46:51;20.20;46.50
28374;DHT22;15616;40.148;-102.718;2023-03-11T00:49:17;20.30;46.60
28374;DHT22;15616;40.148;-102.718;2023-03-11T00:51:43;20.30;46.50
28374;DHT22;15616;40.148;-102.718;2023-03-11T00:54:09;20.30;46.50
28374;DHT22;15616;40.148;-102.718;2023-03-11T00:56:35;20.30;46.40
28374;DHT22;15616;40.148;-102.718;2023-03-11T00:59:01;20.30;46.40
28374;DHT22;15616;40.148;-102.718;2023-03-11T01:01:27;20.30;46.40
28374;DHT22;15616;40.148;-102.718;2023-03-11T01:03:53;20.30;46.50
28374;DHT22;15616;40.148;-102.718;2023-03-11T01:06:19;20.20;46.50
28374;DHT22;15616;40.148;-102.718;2023-03-11T01:08:44;20.20;46.50
28374;DHT22;15616;40.148;-102.718;2023-03-11T01:11:10;20.20;46.60
28374;DHT22;15616;40.148;-102.718;2023-03-11T01:13:37;20.20;46.60
28374;DHT22;15616;40.148;-102.718;2023-03-11T01:16:03;20.20;46.60
28374;DHT22;15616;40.148;-102.718;2023-03-11T01:18:29;20.20;46.60
28374;DHT22;15616;40.148;-102.718;2023-03-11T01:20:55;20.20;46.60
28374;DHT22;15616;40.148;-102.718;2023-03-11T01:23:21;20.20;46.60
28374;DHT22;15616;40.148;-102.718;2023-03-11T01:25:47;20.30;46.60
28374;DHT22;15616;40.148;-102.718;2023-03-11T01:28:13;20.30;46.50
28374;DHT22;15616;40.148;-102.718;2023-03-11T01:30:41;20.30;46.40
28374;DHT22;15616;40.148;-102.718;2023-03-11T01:33:09;20.30;46.40
28374;DHT22;15616;40.148;-102.718;2023-03-11T01:35:37;20.30;46.50
28374;DHT22;15616;40.148;-102.718;2023-03-11T01:38:04;20.30;46.40
28374;DHT22;15616;40.148;-102.718;2023-03-11T01:42:59;20.30;46.50
28374;DHT22;15616;40.148;-102.718;2023-03-11T01:45:37;20.30;46.40
28374;DHT22;15616;40.148;-102.718;2023-03-11T01:48:04;20.30;46.40
28374;DHT22;15616;40.148;-102.718;2023-03-11T01:50:35;20.30;46.40
28374;DHT22;15616;40.148;-102.718;2023-03-11T01:53:02;20.30;46.40
28374;DHT22;15616;40.148;-102.718;2023-03-11T01:55:29;20.30;46.40
28374;DHT22;15616;40.148;-102.718;2023-03-11T01:57:56;20.30;46.40
28374;DHT22;15616;40.148;-102.718;2023-03-11T02:00:22;20.30;46.40
28374;DHT22;15616;40.148;-102.718;2023-03-11T02:02:52;20.30;46.40
28374;DHT22;15616;40.148;-102.718;2023-03-11T02:05:22;20.30;46.30
28374;DHT22;15616;40.148;-102.718;2023-03-11T02:07:50;20.30;46.30
28374;DHT22;15616;40.148;-102.718;2023-03-11T02:10:18;20.30;46.30
28374;DHT22;15616;40.148;-102.718;2023-03-11T02:12:45;20.30;46.30
28374;DHT22;15616;40.148;-102.718;2023-03-11T02:15:12;20.30;46.30
28374;DHT22;15616;40.148;-102.718;2023-03-11T02:17:40;20.30;46.40
28374;DHT22;15616;40.148;-102.718;2023-03-11T02:22:42;20.30;46.30
28374;DHT22;15616;40.148;-102.718;2023-03-11T02:26:15;20.30;46.30
28374;DHT22;15616;40.148;-102.718;2023-03-11T02:28:11;20.30;46.30
28374;DHT22;15616;40.148;-102.718;2023-03-11T02:30:40;20.30;46.40
28374;DHT22;15616;40.148;-102.718;2023-03-11T02:33:08;20.30;46.30
28374;DHT22;15616;40.148;-102.718;2023-03-11T02:35:34;20.30;46.30
28374;DHT22;15616;40.148;-102.718;2023-03-11T02:38:00;20.30;46.30
28374;DHT22;15616;40.148;-102.718;2023-03-11T02:42:57;20.30;46.20
28374;DHT22;15616;40.148;-102.718;2023-03-11T02:45:25;20.30;46.30
28374;DHT22;15616;40.148;-102.718;2023-03-11T02:47:54;20.30;46.20
28374;DHT22;15616;40.148;-102.718;2023-03-11T02:50:21;20.30;46.20
28374;DHT22;15616;40.148;-102.718;2023-03-11T02:52:49;20.30;46.20
28374;DHT22;15616;40.148;-102.718;2023-03-11T02:55:15;20.30;46.20
28374;DHT22;15616;40.148;-102.718;2023-03-11T02:57:43;20.30;46.20
28374;DHT22;15616;40.148;-102.718;2023-03-11T03:00:10;20.30;46.20
28374;DHT22;15616;40.148;-102.718;2023-03-11T03:02:41;20.30;46.20
28374;DHT22;15616;40.148;-102.718;2023-03-11T03:05:08;20.30;46.10
28374;DHT22;15616;40.148;-102.718;2023-03-11T03:07:34;20.30;46.10
28374;DHT22;15616;40.148;-102.718;2023-03-11T03:10:00;20.30;46.10
28374;DHT22;15616;40.148;-102.718;2023-03-11T03:12:26;20.30;46.20
28374;DHT22;15616;40.148;-102.718;2023-03-11T03:14:51;20.30;46.20
28374;DHT22;15616;40.148;-102.718;2023-03-11T03:17:17;20.30;46.10
28374;DHT22;15616;40.148;-102.718;2023-03-11T03:19:43;20.30;46.10
28374;DHT22;15616;40.148;-102.718;2023-03-11T03:22:09;20.30;46.10
28374;DHT22;15616;40.148;-102.718;2023-03-11T03:24:35;20.30;46.10
28374;DHT22;15616;40.148;-102.718;2023-03-11T03:27:01;20.30;46.10
28374;DHT22;15616;40.148;-102.718;2023-03-11T03:29:27;20.30;46.10
28374;DHT22;15616;40.148;-102.718;2023-03-11T03:31:53;20.30;46.10
28374;DHT22;15616;40.148;-102.718;2023-03-11T03:34:19;20.30;46.10
28374;DHT22;15616;40.148;-102.718;2023-03-11T03:36:45;20.30;46.10
28374;DHT22;15616;40.148;-102.718;2023-03-11T03:39:11;20.30;46.10
28374;DHT22;15616;40.148;-102.718;2023-03-11T03:41:37;20.30;46.10
28374;DHT22;15616;40.148;-102.718;2023-03-11T03:44:03;20.30;46.10
28374;DHT22;15616;40.148;-102.718;2023-03-11T03:46:29;20.30;46.10
28374;DHT22;15616;40.148;-102.718;2023-03-11T03:48:55;20.30;46.10
28374;DHT22;15616;40.148;-102.718;2023-03-11T03:51:20;20.30;46.10
28374;DHT22;15616;40.148;-102.718;2023-03-11T03:53:46;20.30;46.10
28374;DHT22;15616;40.148;-102.718;2023-03-11T03:56:15;20.30;46.10
28374;DHT22;15616;40.148;-102.718;2023-03-11T03:58:41;20.30;46.10
28374;DHT22;15616;40.148;-102.718;2023-03-11T04:01:09;20.30;46.10
28374;DHT22;15616;40.148;-102.718;2023-03-11T04:03:35;20.30;46.10
28374;DHT22;15616;40.148;-102.718;2023-03-11T04:08:42;20.30;46.00
28374;DHT22;15616;40.148;-102.718;2023-03-11T04:11:08;20.30;46.10
28374;DHT22;15616;40.148;-102.718;2023-03-11T04:13:34;20.30;46.10
28374;DHT22;15616;40.148;-102.718;2023-03-11T04:16:05;20.30;46.00
28374;DHT22;15616;40.148;-102.718;2023-03-11T04:18:32;20.30;46.00
28374;DHT22;15616;40.148;-102.718;2023-03-11T04:20:58;20.30;46.00
28374;DHT22;15616;40.148;-102.718;2023-03-11T04:23:24;20.30;46.00
28374;DHT22;15616;40.148;-102.718;2023-03-11T04:25:50;20.30;46.10
28374;DHT22;15616;40.148;-102.718;2023-03-11T04:28:16;20.30;46.10
28374;DHT22;15616;40.148;-102.718;2023-03-11T04:30:42;20.20;46.00
28374;DHT22;15616;40.148;-102.718;2023-03-11T04:33:08;20.30;46.00
28374;DHT22;15616;40.148;-102.718;2023-03-11T04:35:33;20.30;46.00
28374;DHT22;15616;40.148;-102.718;2023-03-11T04:38:00;20.30;46.00
28374;DHT22;15616;40.148;-102.718;2023-03-11T04:40:26;20.30;46.00
28374;DHT22;15616;40.148;-102.718;2023-03-11T04:42:52;20.30;46.00
28374;DHT22;15616;40.148;-102.718;2023-03-11T04:45:18;20.30;46.00
28374;DHT22;15616;40.148;-102.718;2023-03-11T04:47:48;20.30;46.00
28374;DHT22;15616;40.148;-102.718;2023-03-11T04:50:15;20.30;46.00
28374;DHT22;15616;40.148;-102.718;2023-03-11T04:52:41;20.30;46.00
28374;DHT22;15616;40.148;-102.718;2023-03-11T04:55:07;20.30;46.00
28374;DHT22;15616;40.148;-102.718;2023-03-11T04:57:34;20.30;45.90
28374;DHT22;15616;40.148;-102.718;2023-03-11T04:59:59;20.30;46.00
28374;DHT22;15616;40.148;-102.718;2023-03-11T05:02:25;20.30;45.90
28374;DHT22;15616;40.148;-102.718;2023-03-11T05:04:52;20.30;45.90
28374;DHT22;15616;40.148;-102.718;2023-03-11T05:07:17;20.30;45.90
28374;DHT22;15616;40.148;-102.718;2023-03-11T05:09:43;20.30;45.90
28374;DHT22;15616;40.148;-102.718;2023-03-11T05:12:12;20.30;45.90
28374;DHT22;15616;40.148;-102.718;2023-03-11T05:14:38;20.30;45.90
28374;DHT22;15616;40.148;-102.718;2023-03-11T05:17:05;20.30;45.90
28374;DHT22;15616;40.148;-102.718;2023-03-11T05:19:31;20.30;45.90
28374;DHT22;15616;40.148;-102.718;2023-03-11T05:22:00;20.30;45.90
28374;DHT22;15616;40.148;-102.718;2023-03-11T05:24:27;20.30;45.90
28374;DHT22;15616;40.148;-102.718;2023-03-11T05:26:53;20.30;45.90
28374;DHT22;15616;40.148;-102.718;2023-03-11T05:29:20;20.30;45.90
28374;DHT22;15616;40.148;-102.718;2023-03-11T05:31:47;20.30;46.00
28374;DHT22;15616;40.148;-102.718;2023-03-11T05:34:14;20.30;45.90
28374;DHT22;15616;40.148;-102.718;2023-03-11T05:36:40;20.30;45.90
28374;DHT22;15616;40.148;-102.718;2023-03-11T05:39:06;20.30;45.90
28374;DHT22;15616;40.148;-102.718;2023-03-11T05:41:32;20.30;45.80
28374;DHT22;15616;40.148;-102.718;2023-03-11T05:43:58;20.30;45.90
28374;DHT22;15616;40.148;-102.718;2023-03-11T05:46:24;20.30;45.90
28374;DHT22;15616;40.148;-102.718;2023-03-11T05:48:50;20.30;45.90
28374;DHT22;15616;40.148;-102.718;2023-03-11T05:51:16;20.30;45.90
28374;DHT22;15616;40.148;-102.718;2023-03-11T05:53:43;20.30;45.90
28374;DHT22;15616;40.148;-102.718;2023-03-11T05:56:13;20.30;45.90
28374;DHT22;15616;40.148;-102.718;2023-03-11T05:58:39;20.30;45.90
28374;DHT22;15616;40.148;-102.718;2023-03-11T06:01:14;20.30;45.90
28374;DHT22;15616;40.148;-102.718;2023-03-11T06:03:40;20.30;45.90
28374;DHT22;15616;40.148;-102.718;2023-03-11T06:06:08;20.30;45.90
28374;DHT22;15616;40.148;-102.718;2023-03-11T06:08:35;20.30;45.90
28374;DHT22;15616;40.148;-102.718;2023-03-11T06:11:02;20.30;45.90
28374;DHT22;15616;40.148;-102.718;2023-03-11T06:13:28;20.30;45.90
28374;DHT22;15616;40.148;-102.718;2023-03-11T06:15:54;20.30;45.90
28374;DHT22;15616;40.148;-102.718;2023-03-11T06:18:20;20.30;45.80
28374;DHT22;15616;40.148;-102.718;2023-03-11T06:20:46;20.30;45.80
28374;DHT22;15616;40.148;-102.718;2023-03-11T06:23:12;20.30;45.80
28374;DHT22;15616;40.148;-102.718;2023-03-11T06:25:38;20.30;45.80
28374;DHT22;15616;40.148;-102.718;2023-03-11T06:28:04;20.30;45.80
28374;DHT22;15616;40.148;-102.718;2023-03-11T06:30:30;20.30;45.80
28374;DHT22;15616;40.148;-102.718;2023-03-11T06:32:56;20.30;45.80
28374;DHT22;15616;40.148;-102.718;2023-03-11T06:35:22;20.30;45.80
28374;DHT22;15616;40.148;-102.718;2023-03-11T06:37:48;20.30;45.80
28374;DHT22;15616;40.148;-102.718;2023-03-11T06:40:14;20.30;45.80
28374;DHT22;15616;40.148;-102.718;2023-03-11T06:42:40;20.30;45.70
28374;DHT22;15616;40.148;-102.718;2023-03-11T06:45:06;20.40;45.80
28374;DHT22;15616;40.148;-102.718;2023-03-11T06:47:32;20.40;45.80
28374;DHT22;15616;40.148;-102.718;2023-03-11T06:49:58;20.40;45.90
28374;DHT22;15616;40.148;-102.718;2023-03-11T06:52:24;20.40;45.90
28374;DHT22;15616;40.148;-102.718;2023-03-11T06:54:50;20.30;45.90
28374;DHT22;15616;40.148;-102.718;2023-03-11T06:57:16;20.30;46.00
28374;DHT22;15616;40.148;-102.718;2023-03-11T06:59:41;20.30;46.00
28374;DHT22;15616;40.148;-102.718;2023-03-11T07:02:12;20.30;46.00
28374;DHT22;15616;40.148;-102.718;2023-03-11T07:04:38;20.30;46.10
28374;DHT22;15616;40.148;-102.718;2023-03-11T07:07:04;20.30;46.10
28374;DHT22;15616;40.148;-102.718;2023-03-11T07:09:30;20.30;46.10
28374;DHT22;15616;40.148;-102.718;2023-03-11T07:11:56;20.30;46.10
28374;DHT22;15616;40.148;-102.718;2023-03-11T07:14:22;20.30;46.10
28374;DHT22;15616;40.148;-102.718;2023-03-11T07:16:48;20.30;46.10
28374;DHT22;15616;40.148;-102.718;2023-03-11T07:19:14;20.30;46.10
28374;DHT22;15616;40.148;-102.718;2023-03-11T07:21:40;20.30;46.10
28374;DHT22;15616;40.148;-102.718;2023-03-11T07:24:07;20.30;46.20
28374;DHT22;15616;40.148;-102.718;2023-03-11T07:26:34;20.30;46.20
28374;DHT22;15616;40.148;-102.718;2023-03-11T07:29:01;20.20;46.20
28374;DHT22;15616;40.148;-102.718;2023-03-11T07:31:29;20.20;46.20
28374;DHT22;15616;40.148;-102.718;2023-03-11T07:34:00;20.20;46.20
28374;DHT22;15616;40.148;-102.718;2023-03-11T07:36:27;20.30;46.40
28374;DHT22;15616;40.148;-102.718;2023-03-11T07:39:01;20.30;46.30
28374;DHT22;15616;40.148;-102.718;2023-03-11T07:41:30;20.30;46.20
28374;DHT22;15616;40.148;-102.718;2023-03-11T07:43:57;20.30;46.20
28374;DHT22;15616;40.148;-102.718;2023-03-11T07:46:25;20.30;46.20
28374;DHT22;15616;40.148;-102.718;2023-03-11T07:48:52;20.30;46.20
28374;DHT22;15616;40.148;-102.718;2023-03-11T07:51:20;20.30;46.10
28374;DHT22;15616;40.148;-102.718;2023-03-11T07:53:48;20.40;46.10
28374;DHT22;15616;40.148;-102.718;2023-03-11T07:56:15;20.40;46.10
28374;DHT22;15616;40.148;-102.718;2023-03-11T07:58:42;20.40;46.00
28374;DHT22;15616;40.148;-102.718;2023-03-11T08:01:11;20.40;46.00
28374;DHT22;15616;40.148;-102.718;2023-03-11T08:03:37;20.40;45.90
28374;DHT22;15616;40.148;-102.718;2023-03-11T08:06:20;20.40;46.00
28374;DHT22;15616;40.148;-102.718;2023-03-11T08:08:48;20.40;45.90
28374;DHT22;15616;40.148;-102.718;2023-03-11T08:11:15;20.40;46.00
28374;DHT22;15616;40.148;-102.718;2023-03-11T08:13:42;20.40;46.00
28374;DHT22;15616;40.148;-102.718;2023-03-11T08:16:10;20.40;45.90
28374;DHT22;15616;40.148;-102.718;2023-03-11T08:18:36;20.40;45.80
28374;DHT22;15616;40.148;-102.718;2023-03-11T08:21:12;20.40;45.70
28374;DHT22;15616;40.148;-102.718;2023-03-11T08:23:38;20.40;45.80
28374;DHT22;15616;40.148;-102.718;2023-03-11T08:26:06;20.40;45.90
28374;DHT22;15616;40.148;-102.718;2023-03-11T08:28:33;20.40;45.90
28374;DHT22;15616;40.148;-102.718;2023-03-11T08:30:59;20.30;45.90
28374;DHT22;15616;40.148;-102.718;2023-03-11T08:33:25;20.40;46.00
28374;DHT22;15616;40.148;-102.718;2023-03-11T08:35:51;20.40;46.00
28374;DHT22;15616;40.148;-102.718;2023-03-11T08:38:17;20.40;46.10
28374;DHT22;15616;40.148;-102.718;2023-03-11T08:40:42;20.30;46.10
28374;DHT22;15616;40.148;-102.718;2023-03-11T08:43:12;20.30;46.10
28374;DHT22;15616;40.148;-102.718;2023-03-11T08:45:42;20.40;46.20
28374;DHT22;15616;40.148;-102.718;2023-03-11T08:48:10;20.40;46.10
28374;DHT22;15616;40.148;-102.718;2023-03-11T08:50:38;20.40;46.10
28374;DHT22;15616;40.148;-102.718;2023-03-11T08:53:04;20.40;46.10
28374;DHT22;15616;40.148;-102.718;2023-03-11T08:55:30;20.40;46.10
28374;DHT22;15616;40.148;-102.718;2023-03-11T08:57:56;20.40;46.00
28374;DHT22;15616;40.148;-102.718;2023-03-11T09:00:22;20.40;46.00
28374;DHT22;15616;40.148;-102.718;2023-03-11T09:02:48;20.40;45.90
28374;DHT22;15616;40.148;-102.718;2023-03-11T09:05:14;20.40;45.90
28374;DHT22;15616;40.148;-102.718;2023-03-11T09:07:41;20.40;45.80
28374;DHT22;15616;40.148;-102.718;2023-03-11T09:10:07;20.50;45.90
28374;DHT22;15616;40.148;-102.718;2023-03-11T09:12:33;20.40;45.80
28374;DHT22;15616;40.148;-102.718;2023-03-11T09:14:59;20.40;45.90
28374;DHT22;15616;40.148;-102.718;2023-03-11T09:17:25;20.50;46.00
28374;DHT22;15616;40.148;-102.718;2023-03-11T09:19:51;20.40;46.00
28374;DHT22;15616;40.148;-102.718;2023-03-11T09:22:17;20.40;46.00
28374;DHT22;15616;40.148;-102.718;2023-03-11T09:24:43;20.40;46.00
28374;DHT22;15616;40.148;-102.718;2023-03-11T09:27:09;20.40;46.00
28374;DHT22;15616;40.148;-102.718;2023-03-11T09:29:35;20.40;46.00
28374;DHT22;15616;40.148;-102.718;2023-03-11T09:32:01;20.40;46.00
28374;DHT22;15616;40.148;-102.718;2023-03-11T09:34:27;20.40;46.00
28374;DHT22;15616;40.148;-102.718;2023-03-11T09:36:53;20.40;46.00
28374;DHT22;15616;40.148;-102.718;2023-03-11T09:39:19;20.50;46.10
28374;DHT22;15616;40.148;-102.718;2023-03-11T09:41:56;20.50;46.10
28374;DHT22;15616;40.148;-102.718;2023-03-11T09:44:48;20.50;46.10
28374;DHT22;15616;40.148;-102.718;2023-03-11T09:50:32;20.50;46.10
28374;DHT22;15616;40.148;-102.718;2023-03-11T09:55:39;20.50;46.00
28374;DHT22;15616;40.148;-102.718;2023-03-11T09:58:20;20.50;45.90
28374;DHT22;15616;40.148;-102.718;2023-03-11T10:00:48;20.50;45.80
28374;DHT22;15616;40.148;-102.718;2023-03-11T10:03:34;20.50;45.90
28374;DHT22;15616;40.148;-102.718;2023-03-11T10:08:45;20.40;45.80
28374;DHT22;15616;40.148;-102.718;2023-03-11T10:14:10;20.40;45.90
28374;DHT22;15616;40.148;-102.718;2023-03-11T10:16:46;20.40;45.90
28374;DHT22;15616;40.148;-102.718;2023-03-11T10:22:16;20.40;45.90
28374;DHT22;15616;40.148;-102.718;2023-03-11T10:25:11;20.40;45.90
28374;DHT22;15616;40.148;-102.718;2023-03-11T10:27:44;20.40;45.90
28374;DHT22;15616;40.148;-102.718;2023-03-11T10:30:43;20.40;45.90
28374;DHT22;15616;40.148;-102.718;2023-03-11T10:36:03;20.40;45.80
28374;DHT22;15616;40.148;-102.718;2023-03-11T10:38:43;20.40;45.80
28374;DHT22;15616;40.148;-102.718;2023-03-11T10:47:20;20.40;45.70
28374;DHT22;15616;40.148;-102.718;2023-03-11T10:49:49;20.40;45.70
28374;DHT22;15616;40.148;-102.718;2023-03-11T10:52:15;20.40;45.80
28374;DHT22;15616;40.148;-102.718;2023-03-11T10:54:44;20.40;45.80
28374;DHT22;15616;40.148;-102.718;2023-03-11T10:57:25;20.40;45.80
28374;DHT22;15616;40.148;-102.718;2023-03-11T10:59:57;20.40;45.80
28374;DHT22;15616;40.148;-102.718;2023-03-11T11:02:29;20.40;45.90
28374;DHT22;15616;40.148;-102.718;2023-03-11T11:07:41;20.40;45.90
28374;DHT22;15616;40.148;-102.718;2023-03-11T11:13:23;20.40;45.90
28374;DHT22;15616;40.148;-102.718;2023-03-11T11:21:08;20.40;45.90
28374;DHT22;15616;40.148;-102.718;2023-03-11T11:23:49;20.40;45.80
28374;DHT22;15616;40.148;-102.718;2023-03-11T11:26:16;20.40;45.90
28374;DHT22;15616;40.148;-102.718;2023-03-11T11:28:43;20.40;45.90
28374;DHT22;15616;40.148;-102.718;2023-03-11T11:31:23;20.40;45.80
28374;DHT22;15616;40.148;-102.718;2023-03-11T11:33:54;20.40;45.80
28374;DHT22;15616;40.148;-102.718;2023-03-11T11:36:27;20.40;45.80
28374;DHT22;15616;40.148;-102.718;2023-03-11T11:38:54;20.40;45.90
28374;DHT22;15616;40.148;-102.718;2023-03-11T11:41:23;20.40;46.00
28374;DHT22;15616;40.148;-102.718;2023-03-11T11:44:00;20.40;46.00
28374;DHT22;15616;40.148;-102.718;2023-03-11T11:46:34;20.40;45.90
28374;DHT22;15616;40.148;-102.718;2023-03-11T11:49:28;20.40;46.00
28374;DHT22;15616;40.148;-102.718;2023-03-11T11:52:16;20.40;46.00
28374;DHT22;15616;40.148;-102.718;2023-03-11T11:55:52;20.40;46.00
28374;DHT22;15616;40.148;-102.718;2023-03-11T11:57:47;20.40;46.10
28374;DHT22;15616;40.148;-102.718;2023-03-11T12:06:04;20.40;46.10
28374;DHT22;15616;40.148;-102.718;2023-03-11T12:08:43;20.40;46.20
28374;DHT22;15616;40.148;-102.718;2023-03-11T12:11:23;20.40;46.10
28374;DHT22;15616;40.148;-102.718;2023-03-11T12:16:57;20.40;45.90
28374;DHT22;15616;40.148;-102.718;2023-03-11T12:27:26;20.40;45.70
28374;DHT22;15616;40.148;-102.718;2023-03-11T12:29:57;20.50;45.70
28374;DHT22;15616;40.148;-102.718;2023-03-11T12:32:40;20.40;45.70
28374;DHT22;15616;40.148;-102.718;2023-03-11T12:35:30;20.50;45.80
28374;DHT22;15616;40.148;-102.718;2023-03-11T12:46:08;20.50;46.00
28374;DHT22;15616;40.148;-102.718;2023-03-11T12:48:41;20.50;46.00
28374;DHT22;15616;40.148;-102.718;2023-03-11T12:53:54;20.50;46.00
28374;DHT22;15616;40.148;-102.718;2023-03-11T12:56:33;20.40;46.10
28374;DHT22;15616;40.148;-102.718;2023-03-11T13:07:50;20.50;46.20
28374;DHT22;15616;40.148;-102.718;2023-03-11T13:10:35;20.50;46.10
28374;DHT22;15616;40.148;-102.718;2023-03-11T13:15:53;20.50;46.10
28374;DHT22;15616;40.148;-102.718;2023-03-11T13:18:26;20.50;46.20
28374;DHT22;15616;40.148;-102.718;2023-03-11T13:21:02;20.50;46.20
28374;DHT22;15616;40.148;-102.718;2023-03-11T13:23:38;20.40;46.10
28374;DHT22;15616;40.148;-102.718;2023-03-11T13:26:15;20.50;46.10
28374;DHT22;15616;40.148;-102.718;2023-03-11T13:28:51;20.40;46.00
28374;DHT22;15616;40.148;-102.718;2023-03-11T13:42:56;20.50;46.10
28374;DHT22;15616;40.148;-102.718;2023-03-11T13:45:28;20.40;46.10
28374;DHT22;15616;40.148;-102.718;2023-03-11T13:48:11;20.50;46.30
28374;DHT22;15616;40.148;-102.718;2023-03-11T13:50:42;20.50;46.20
28374;DHT22;15616;40.148;-102.718;2023-03-11T13:53:23;20.50;46.20
28374;DHT22;15616;40.148;-102.718;2023-03-11T13:55:50;20.50;46.10
28374;DHT22;15616;40.148;-102.718;2023-03-11T13:58:21;20.50;46.10
28374;DHT22;15616;40.148;-102.718;2023-03-11T14:00:59;20.50;46.00
28374;DHT22;15616;40.148;-102.718;2023-03-11T14:03:35;20.50;46.00
28374;DHT22;15616;40.148;-102.718;2023-03-11T14:06:07;20.60;46.10
28374;DHT22;15616;40.148;-102.718;2023-03-11T14:08:37;20.50;46.00
28374;DHT22;15616;40.148;-102.718;2023-03-11T14:11:15;20.60;46.00
28374;DHT22;15616;40.148;-102.718;2023-03-11T14:13:47;20.60;45.90
28374;DHT22;15616;40.148;-102.718;2023-03-11T14:16:30;20.60;45.90
28374;DHT22;15616;40.148;-102.718;2023-03-11T14:19:05;20.60;45.90
28374;DHT22;15616;40.148;-102.718;2023-03-11T14:21:41;20.60;45.90
28374;DHT22;15616;40.148;-102.718;2023-03-11T14:24:15;20.70;45.90
28374;DHT22;15616;40.148;-102.718;2023-03-11T14:26:42;20.70;45.80
28374;DHT22;15616;40.148;-102.718;2023-03-11T14:29:16;20.70;45.80
28374;DHT22;15616;40.148;-102.718;2023-03-11T14:31:44;20.80;45.80
28374;DHT22;15616;40.148;-102.718;2023-03-11T14:34:22;20.70;45.70
28374;DHT22;15616;40.148;-102.718;2023-03-11T14:36:54;20.70;45.80
28374;DHT22;15616;40.148;-102.718;2023-03-11T14:41:48;20.60;45.70
28374;DHT22;15616;40.148;-102.718;2023-03-11T14:44:15;20.60;45.80
28374;DHT22;15616;40.148;-102.718;2023-03-11T14:46:42;20.60;45.80
28374;DHT22;15616;40.148;-102.718;2023-03-11T14:49:18;20.60;45.80
28374;DHT22;15616;40.148;-102.718;2023-03-11T14:51:47;20.60;45.90
28374;DHT22;15616;40.148;-102.718;2023-03-11T14:54:19;20.60;45.90
28374;DHT22;15616;40.148;-102.718;2023-03-11T14:56:50;20.60;45.90
28374;DHT22;15616;40.148;-102.718;2023-03-11T14:59:28;20.60;45.90
28374;DHT22;15616;40.148;-102.718;2023-03-11T15:01:59;20.60;45.90
28374;DHT22;15616;40.148;-102.718;2023-03-11T15:04:34;20.50;45.90
28374;DHT22;15616;40.148;-102.718;2023-03-11T15:07:02;20.60;46.00
28374;DHT22;15616;40.148;-102.718;2023-03-11T15:09:29;20.50;46.00
28374;DHT22;15616;40.148;-102.718;2023-03-11T15:12:00;20.50;46.10
28374;DHT22;15616;40.148;-102.718;2023-03-11T15:14:34;20.50;46.10
28374;DHT22;15616;40.148;-102.718;2023-03-11T15:17:21;20.60;46.00
28374;DHT22;15616;40.148;-102.718;2023-03-11T15:19:51;20.60;46.00
28374;DHT22;15616;40.148;-102.718;2023-03-11T15:22:24;20.60;46.00
28374;DHT22;15616;40.148;-102.718;2023-03-11T15:24:58;20.60;45.90
28374;DHT22;15616;40.148;-102.718;2023-03-11T15:27:33;20.60;45.80
28374;DHT22;15616;40.148;-102.718;2023-03-11T15:30:02;20.60;45.80
28374;DHT22;15616;40.148;-102.718;2023-03-11T15:32:40;20.60;45.80
28374;DHT22;15616;40.148;-102.718;2023-03-11T15:37:39;20.60;45.90
28374;DHT22;15616;40.148;-102.718;2023-03-11T15:40:27;20.60;45.90
28374;DHT22;15616;40.148;-102.718;2023-03-11T15:43:18;20.60;46.00
28374;DHT22;15616;40.148;-102.718;2023-03-11T15:45:45;20.60;45.90
28374;DHT22;15616;40.148;-102.718;2023-03-11T15:48:12;20.50;45.90
28374;DHT22;15616;40.148;-102.718;2023-03-11T15:50:52;20.60;46.00
28374;DHT22;15616;40.148;-102.718;2023-03-11T15:53:20;20.60;46.00
28374;DHT22;15616;40.148;-102.718;2023-03-11T15:55:46;20.50;46.00
28374;DHT22;15616;40.148;-102.718;2023-03-11T15:58:17;20.50;46.00
28374;DHT22;15616;40.148;-102.718;2023-03-11T16:00:50;20.50;46.00
28374;DHT22;15616;40.148;-102.718;2023-03-11T16:03:16;20.50;46.10
28374;DHT22;15616;40.148;-102.718;2023-03-11T16:05:42;20.50;46.10
28374;DHT22;15616;40.148;-102.718;2023-03-11T16:08:08;20.50;46.20
28374;DHT22;15616;40.148;-102.718;2023-03-11T16:10:35;20.50;46.20
28374;DHT22;15616;40.148;-102.718;2023-03-11T16:13:01;20.50;46.20
28374;DHT22;15616;40.148;-102.718;2023-03-11T16:15:33;20.50;46.20
28374;DHT22;15616;40.148;-102.718;2023-03-11T16:18:02;20.50;46.20
28374;DHT22;15616;40.148;-102.718;2023-03-11T16:20:52;20.50;46.30
28374;DHT22;15616;40.148;-102.718;2023-03-11T16:23:29;20.50;46.20
28374;DHT22;15616;40.148;-102.718;2023-03-11T16:25:58;20.50;46.20
28374;DHT22;15616;40.148;-102.718;2023-03-11T16:28:26;20.50;46.80
28374;DHT22;15616;40.148;-102.718;2023-03-11T16:30:51;20.50;46.10
28374;DHT22;15616;40.148;-102.718;2023-03-11T16:33:17;20.50;46.10
28374;DHT22;15616;40.148;-102.718;2023-03-11T16:35:43;20.50;46.10
28374;DHT22;15616;40.148;-102.718;2023-03-11T16:38:10;20.50;46.80
28374;DHT22;15616;40.148;-102.718;2023-03-11T16:40:36;20.50;46.00